sensor_id;sensor_type;location;lat;lon;timestamp;P1;durP1;ratioP1;P2;durP2;ratioP2
9968;SDS011;5025;48.890;9.278;2022-11-02T00:03:54;3.40;;;3.20;;
9968;SDS011;5025;48.890;9.278;2022-11-02T00:06:20;3.67;;;3.40;;
9968;SDS011;5025;48.890;9.278;2022-11-02T00:08:45;3.17;;;2.97;;
9968;SDS011;5025;48.890;9.278;2022-11-02T00:11:11;4.27;;;3.30;;
9968;SDS011;5025;48.890;9.278;2022-11-02T00:13:36;5.20;;;3.20;;
9968;SDS011;5025;48.890;9.278;2022-11-02T00:16:02;3.90;;;3.03;;
9968;SDS011;5025;48.890;9.278;2022-11-02T00:18:30;3.90;;;3.10;;
9968;SDS011;5025;48.890;9.278;2022-11-02T00:20:57;3.63;;;3.20;;
9968;SDS011;5025;48.890;9.278;2022-11-02T00:23:23;3.50;;;3.20;;
9968;SDS011;5025;48.890;9.278;2022-11-02T00:25:49;2.90;;;2.70;;
9968;SDS011;5025;48.890;9.278;2022-11-02T00:28:16;3.97;;;3.23;;
9968;SDS011;5025;48.890;9.278;2022-11-02T00:30:42;3.70;;;3.40;;
9968;SDS011;5025;48.890;9.278;2022-11-02T00:33:08;3.43;;;3.13;;
9968;SDS011;5025;48.890;9.278;2022-11-02T00:35:33;4.43;;;3.33;;
9968;SDS011;5025;48.890;9.278;2022-11-02T00:37:59;3.70;;;3.40;;
9968;SDS011;5025;48.890;9.278;2022-11-02T00:40:24;3.47;;;3.17;;
9968;SDS011;5025;48.890;9.278;2022-11-02T00:42:50;3.60;;;3.30;;
9968;SDS011;5025;48.890;9.278;2022-11-02T00:45:15;4.00;;;3.60;;
9968;SDS011;5025;48.890;9.278;2022-11-02T00:47:40;3.50;;;3.20;;
9968;SDS011;5025;48.890;9.278;2022-11-02T00:50:06;3.63;;;3.33;;
9968;SDS011;5025;48.890;9.278;2022-11-02T00:52:31;3.77;;;3.40;;
9968;SDS011;5025;48.890;9.278;2022-11-02T00:54:57;3.17;;;2.97;;
9968;SDS011;5025;48.890;9.278;2022-11-02T00:57:22;3.47;;;3.17;;
9968;SDS011;5025;48.890;9.278;2022-11-02T00:59:48;3.53;;;3.27;;
9968;SDS011;5025;48.890;9.278;2022-11-02T01:02:13;3.30;;;3.10;;
9968;SDS011;5025;48.890;9.278;2022-11-02T01:04:38;5.63;;;3.50;;
9968;SDS011;5025;48.890;9.278;2022-11-02T01:07:04;3.80;;;3.50;;
9968;SDS011;5025;48.890;9.278;2022-11-02T01:09:29;4.07;;;3.63;;
9968;SDS011;5025;48.890;9.278;2022-11-02T01:11:54;3.70;;;3.40;;
9968;SDS011;5025;48.890;9.278;2022-11-02T01:14:20;3.63;;;3.33;;
9968;SDS011;5025;48.890;9.278;2022-11-02T01:16:46;3.90;;;3.60;;
9968;SDS011;5025;48.890;9.278;2022-11-02T01:19:11;3.60;;;3.40;;
9968;SDS011;5025;48.890;9.278;2022-11-02T01:21:37;3.60;;;3.30;;
9968;SDS011;5025;48.890;9.278;2022-11-02T01:24:03;3.70;;;3.13;;
9968;SDS011;5025;48.890;9.278;2022-11-02T01:26:28;3.63;;;3.37;;
9968;SDS011;5025;48.890;9.278;2022-11-02T01:28:53;3.47;;;3.10;;
9968;SDS011;5025;48.890;9.278;2022-11-02T01:31:19;3.57;;;3.30;;
9968;SDS011;5025;48.890;9.278;2022-11-02T01:33:45;3.67;;;3.37;;
9968;SDS011;5025;48.890;9.278;2022-11-02T01:36:11;4.60;;;3.50;;
9968;SDS011;5025;48.890;9.278;2022-11-02T01:38:38;3.40;;;3.20;;
9968;SDS011;5025;48.890;9.278;2022-11-02T01:41:04;3.37;;;3.07;;
9968;SDS011;5025;48.890;9.278;2022-11-02T01:43:31;4.03;;;3.20;;
9968;SDS011;5025;48.890;9.278;2022-11-02T01:46:06;4.33;;;3.63;;
9968;SDS011;5025;48.890;9.278;2022-11-02T01:48:43;3.43;;;3.20;;
9968;SDS011;5025;48.890;9.278;2022-11-02T01:51:10;3.50;;;3.20;;
9968;SDS011;5025;48.890;9.278;2022-11-02T01:53:40;5.13;;;3.40;;
9968;SDS011;5025;48.890;9.278;2022-11-02T01:56:09;3.60;;;3.30;;
9968;SDS011;5025;48.890;9.278;2022-11-02T01:58:36;3.60;;;3.30;;
9968;SDS011;5025;48.890;9.278;2022-11-02T02:01:02;4.10;;;3.50;;
9968;SDS011;5025;48.890;9.278;2022-11-02T02:03:28;3.30;;;3.10;;
9968;SDS011;5025;48.890;9.278;2022-11-02T02:05:57;3.43;;;3.13;;
9968;SDS011;5025;48.890;9.278;2022-11-02T02:08:25;3.43;;;3.13;;
9968;SDS011;5025;48.890;9.278;2022-11-02T02:10:55;4.07;;;3.10;;
9968;SDS011;5025;48.890;9.278;2022-11-02T02:13:21;2.90;;;2.60;;
9968;SDS011;5025;48.890;9.278;2022-11-02T02:18:57;4.57;;;2.93;;
9968;SDS011;5025;48.890;9.278;2022-11-02T02:26:58;3.57;;;2.50;;
9968;SDS011;5025;48.890;9.278;2022-11-02T02:29:55;2.40;;;2.20;;
9968;SDS011;5025;48.890;9.278;2022-11-02T02:32:23;2.90;;;2.60;;
9968;SDS011;5025;48.890;9.278;2022-11-02T02:35:11;2.57;;;2.37;;
9968;SDS011;5025;48.890;9.278;2022-11-02T02:37:49;2.30;;;2.10;;
9968;SDS011;5025;48.890;9.278;2022-11-02T02:40:21;2.47;;;2.27;;
9968;SDS011;5025;48.890;9.278;2022-11-02T02:45:41;3.93;;;2.20;;
9968;SDS011;5025;48.890;9.278;2022-11-02T02:48:16;3.10;;;2.43;;
9968;SDS011;5025;48.890;9.278;2022-11-02T02:50:47;4.47;;;2.30;;
9968;SDS011;5025;48.890;9.278;2022-11-02T02:53:15;2.70;;;2.23;;
9968;SDS011;5025;48.890;9.278;2022-11-02T02:55:47;4.67;;;2.40;;
9968;SDS011;5025;48.890;9.278;2022-11-02T02:58:21;3.10;;;2.90;;
9968;SDS011;5025;48.890;9.278;2022-11-02T03:00:50;2.67;;;2.47;;
9968;SDS011;5025;48.890;9.278;2022-11-02T03:03:22;2.70;;;2.50;;
9968;SDS011;5025;48.890;9.278;2022-11-02T03:06:09;2.87;;;2.60;;
9968;SDS011;5025;48.890;9.278;2022-11-02T03:08:38;3.10;;;2.90;;
9968;SDS011;5025;48.890;9.278;2022-11-02T03:11:14;2.83;;;2.63;;
9968;SDS011;5025;48.890;9.278;2022-11-02T03:19:27;2.40;;;2.27;;
9968;SDS011;5025;48.890;9.278;2022-11-02T03:30:38;2.27;;;2.10;;
9968;SDS011;5025;48.890;9.278;2022-11-02T03:33:25;2.17;;;1.97;;
9968;SDS011;5025;48.890;9.278;2022-11-02T03:36:16;2.03;;;1.80;;
9968;SDS011;5025;48.890;9.278;2022-11-02T03:38:51;2.13;;;1.90;;
9968;SDS011;5025;48.890;9.278;2022-11-02T03:41:22;2.10;;;1.97;;
9968;SDS011;5025;48.890;9.278;2022-11-02T03:43:50;2.00;;;1.90;;
9968;SDS011;5025;48.890;9.278;2022-11-02T03:46:21;2.10;;;1.90;;
9968;SDS011;5025;48.890;9.278;2022-11-02T03:48:48;2.03;;;1.93;;
9968;SDS011;5025;48.890;9.278;2022-11-02T03:51:17;2.27;;;2.00;;
9968;SDS011;5025;48.890;9.278;2022-11-02T03:53:50;2.37;;;2.03;;
9968;SDS011;5025;48.890;9.278;2022-11-02T03:59:11;2.00;;;1.90;;
9968;SDS011;5025;48.890;9.278;2022-11-02T04:01:47;2.40;;;2.20;;
9968;SDS011;5025;48.890;9.278;2022-11-02T04:04:14;3.10;;;2.07;;
9968;SDS011;5025;48.890;9.278;2022-11-02T04:06:40;2.20;;;2.10;;
9968;SDS011;5025;48.890;9.278;2022-11-02T04:09:07;2.40;;;2.20;;
9968;SDS011;5025;48.890;9.278;2022-11-02T04:11:34;2.60;;;2.40;;
9968;SDS011;5025;48.890;9.278;2022-11-02T04:14:18;2.40;;;2.30;;
9968;SDS011;5025;48.890;9.278;2022-11-02T04:17:02;2.50;;;2.30;;
9968;SDS011;5025;48.890;9.278;2022-11-02T04:19:47;2.27;;;2.07;;
9968;SDS011;5025;48.890;9.278;2022-11-02T04:22:13;2.47;;;2.27;;
9968;SDS011;5025;48.890;9.278;2022-11-02T04:24:57;2.20;;;2.00;;
9968;SDS011;5025;48.890;9.278;2022-11-02T04:27:42;2.37;;;2.20;;
9968;SDS011;5025;48.890;9.278;2022-11-02T04:30:09;2.43;;;2.20;;
9968;SDS011;5025;48.890;9.278;2022-11-02T04:32:38;2.30;;;2.10;;
9968;SDS011;5025;48.890;9.278;2022-11-02T04:35:23;3.03;;;2.30;;
9968;SDS011;5025;48.890;9.278;2022-11-02T04:37:48;4.70;;;2.30;;
9968;SDS011;5025;48.890;9.278;2022-11-02T04:40:35;2.13;;;1.93;;
9968;SDS011;5025;48.890;9.278;2022-11-02T04:43:00;2.40;;;1.83;;
9968;SDS011;5025;48.890;9.278;2022-11-02T04:45:26;2.13;;;2.00;;
9968;SDS011;5025;48.890;9.278;2022-11-02T04:47:51;2.27;;;1.87;;
9968;SDS011;5025;48.890;9.278;2022-11-02T04:50:17;2.63;;;2.10;;
9968;SDS011;5025;48.890;9.278;2022-11-02T04:52:42;2.60;;;1.87;;
9968;SDS011;5025;48.890;9.278;2022-11-02T04:55:07;2.83;;;2.17;;
9968;SDS011;5025;48.890;9.278;2022-11-02T04:57:33;2.57;;;2.37;;
9968;SDS011;5025;48.890;9.278;2022-11-02T04:59:58;2.40;;;2.20;;
9968;SDS011;5025;48.890;9.278;2022-11-02T05:02:24;2.30;;;2.20;;
9968;SDS011;5025;48.890;9.278;2022-11-02T05:04:49;2.50;;;2.30;;
9968;SDS011;5025;48.890;9.278;2022-11-02T05:07:14;2.23;;;2.13;;
9968;SDS011;5025;48.890;9.278;2022-11-02T05:09:40;2.73;;;2.33;;
9968;SDS011;5025;48.890;9.278;2022-11-02T05:12:06;2.60;;;2.40;;
9968;SDS011;5025;48.890;9.278;2022-11-02T05:14:31;2.63;;;2.40;;
9968;SDS011;5025;48.890;9.278;2022-11-02T05:16:57;4.60;;;2.47;;
9968;SDS011;5025;48.890;9.278;2022-11-02T05:19:23;2.77;;;2.27;;
9968;SDS011;5025;48.890;9.278;2022-11-02T05:21:49;2.30;;;2.20;;
9968;SDS011;5025;48.890;9.278;2022-11-02T05:24:14;2.30;;;2.10;;
9968;SDS011;5025;48.890;9.278;2022-11-02T05:26:40;2.37;;;2.17;;
9968;SDS011;5025;48.890;9.278;2022-11-02T05:29:05;2.73;;;2.00;;
9968;SDS011;5025;48.890;9.278;2022-11-02T05:31:31;2.30;;;2.17;;
9968;SDS011;5025;48.890;9.278;2022-11-02T05:33:57;2.20;;;2.10;;
9968;SDS011;5025;48.890;9.278;2022-11-02T05:36:22;2.33;;;2.10;;
9968;SDS011;5025;48.890;9.278;2022-11-02T05:38:50;3.00;;;2.30;;
9968;SDS011;5025;48.890;9.278;2022-11-02T05:41:17;3.93;;;3.63;;
9968;SDS011;5025;48.890;9.278;2022-11-02T05:43:43;38.43;;;26.33;;
9968;SDS011;5025;48.890;9.278;2022-11-02T05:46:08;34.60;;;23.73;;
9968;SDS011;5025;48.890;9.278;2022-11-02T05:48:33;42.77;;;29.33;;
9968;SDS011;5025;48.890;9.278;2022-11-02T05:51:02;31.73;;;21.83;;
9968;SDS011;5025;48.890;9.278;2022-11-02T05:53:28;25.33;;;17.37;;
9968;SDS011;5025;48.890;9.278;2022-11-02T05:55:58;21.03;;;14.43;;
9968;SDS011;5025;48.890;9.278;2022-11-02T05:58:25;15.57;;;10.80;;
9968;SDS011;5025;48.890;9.278;2022-11-02T06:00:50;9.97;;;7.23;;
9968;SDS011;5025;48.890;9.278;2022-11-02T06:03:16;8.37;;;6.13;;
9968;SDS011;5025;48.890;9.278;2022-11-02T06:05:41;7.67;;;5.00;;
9968;SDS011;5025;48.890;9.278;2022-11-02T06:08:07;5.20;;;4.70;;
9968;SDS011;5025;48.890;9.278;2022-11-02T06:10:32;6.60;;;4.10;;
9968;SDS011;5025;48.890;9.278;2022-11-02T06:12:58;5.97;;;4.00;;
9968;SDS011;5025;48.890;9.278;2022-11-02T06:15:25;5.17;;;3.60;;
9968;SDS011;5025;48.890;9.278;2022-11-02T06:17:52;3.97;;;3.40;;
9968;SDS011;5025;48.890;9.278;2022-11-02T06:20:18;3.83;;;3.00;;
9968;SDS011;5025;48.890;9.278;2022-11-02T06:22:44;4.23;;;3.13;;
9968;SDS011;5025;48.890;9.278;2022-11-02T06:25:10;3.30;;;3.00;;
9968;SDS011;5025;48.890;9.278;2022-11-02T06:27:36;5.13;;;3.10;;
9968;SDS011;5025;48.890;9.278;2022-11-02T06:30:02;4.80;;;3.30;;
9968;SDS011;5025;48.890;9.278;2022-11-02T06:32:28;3.77;;;3.20;;
9968;SDS011;5025;48.890;9.278;2022-11-02T06:34:53;3.40;;;3.10;;
9968;SDS011;5025;48.890;9.278;2022-11-02T06:37:19;4.03;;;3.10;;
9968;SDS011;5025;48.890;9.278;2022-11-02T06:39:45;2.87;;;2.63;;
9968;SDS011;5025;48.890;9.278;2022-11-02T06:42:10;3.40;;;3.10;;
9968;SDS011;5025;48.890;9.278;2022-11-02T06:44:35;3.47;;;3.17;;
9968;SDS011;5025;48.890;9.278;2022-11-02T06:47:01;5.07;;;4.30;;
9968;SDS011;5025;48.890;9.278;2022-11-02T06:49:26;5.90;;;4.23;;
9968;SDS011;5025;48.890;9.278;2022-11-02T06:51:51;4.70;;;3.70;;
9968;SDS011;5025;48.890;9.278;2022-11-02T06:54:17;3.57;;;3.10;;
9968;SDS011;5025;48.890;9.278;2022-11-02T06:56:42;3.70;;;3.40;;
9968;SDS011;5025;48.890;9.278;2022-11-02T06:59:08;3.27;;;3.00;;
9968;SDS011;5025;48.890;9.278;2022-11-02T07:01:33;5.23;;;2.73;;
9968;SDS011;5025;48.890;9.278;2022-11-02T07:03:59;6.03;;;2.97;;
9968;SDS011;5025;48.890;9.278;2022-11-02T07:06:25;2.83;;;2.30;;
9968;SDS011;5025;48.890;9.278;2022-11-02T07:08:50;2.37;;;2.00;;
9968;SDS011;5025;48.890;9.278;2022-11-02T07:11:16;2.33;;;2.13;;
9968;SDS011;5025;48.890;9.278;2022-11-02T07:13:42;2.47;;;2.27;;
9968;SDS011;5025;48.890;9.278;2022-11-02T07:16:07;2.00;;;1.90;;
9968;SDS011;5025;48.890;9.278;2022-11-02T07:18:33;4.20;;;2.40;;
9968;SDS011;5025;48.890;9.278;2022-11-02T07:20:58;3.27;;;2.40;;
9968;SDS011;5025;48.890;9.278;2022-11-02T07:23:24;3.20;;;2.50;;
9968;SDS011;5025;48.890;9.278;2022-11-02T07:25:49;4.00;;;2.80;;
9968;SDS011;5025;48.890;9.278;2022-11-02T07:28:15;3.93;;;3.10;;
9968;SDS011;5025;48.890;9.278;2022-11-02T07:30:40;3.30;;;2.93;;
9968;SDS011;5025;48.890;9.278;2022-11-02T07:33:06;5.10;;;3.70;;
9968;SDS011;5025;48.890;9.278;2022-11-02T07:35:31;6.73;;;3.07;;
9968;SDS011;5025;48.890;9.278;2022-11-02T07:38:02;5.60;;;3.20;;
9968;SDS011;5025;48.890;9.278;2022-11-02T07:40:29;4.90;;;3.20;;
9968;SDS011;5025;48.890;9.278;2022-11-02T07:42:56;6.17;;;4.27;;
9968;SDS011;5025;48.890;9.278;2022-11-02T07:45:23;5.83;;;4.93;;
9968;SDS011;5025;48.890;9.278;2022-11-02T07:47:49;6.20;;;4.50;;
9968;SDS011;5025;48.890;9.278;2022-11-02T07:50:15;5.30;;;4.80;;
9968;SDS011;5025;48.890;9.278;2022-11-02T07:52:46;6.73;;;4.37;;
9968;SDS011;5025;48.890;9.278;2022-11-02T07:55:13;5.93;;;4.10;;
9968;SDS011;5025;48.890;9.278;2022-11-02T07:57:40;6.37;;;4.50;;
9968;SDS011;5025;48.890;9.278;2022-11-02T08:00:08;4.67;;;3.93;;
9968;SDS011;5025;48.890;9.278;2022-11-02T08:02:34;4.67;;;3.70;;
9968;SDS011;5025;48.890;9.278;2022-11-02T08:04:59;4.00;;;3.60;;
9968;SDS011;5025;48.890;9.278;2022-11-02T08:07:25;4.47;;;3.90;;
9968;SDS011;5025;48.890;9.278;2022-11-02T08:09:50;5.57;;;3.90;;
9968;SDS011;5025;48.890;9.278;2022-11-02T08:12:15;4.37;;;4.00;;
9968;SDS011;5025;48.890;9.278;2022-11-02T08:14:41;5.50;;;4.30;;
9968;SDS011;5025;48.890;9.278;2022-11-02T08:17:06;5.07;;;3.90;;
9968;SDS011;5025;48.890;9.278;2022-11-02T08:19:32;6.53;;;5.27;;
9968;SDS011;5025;48.890;9.278;2022-11-02T08:21:57;6.57;;;5.63;;
9968;SDS011;5025;48.890;9.278;2022-11-02T08:24:23;6.33;;;4.73;;
9968;SDS011;5025;48.890;9.278;2022-11-02T08:26:48;4.07;;;3.67;;
9968;SDS011;5025;48.890;9.278;2022-11-02T08:29:13;4.40;;;3.30;;
9968;SDS011;5025;48.890;9.278;2022-11-02T08:31:39;3.90;;;3.30;;
9968;SDS011;5025;48.890;9.278;2022-11-02T08:34:04;3.83;;;3.43;;
9968;SDS011;5025;48.890;9.278;2022-11-02T08:36:29;5.00;;;2.90;;
9968;SDS011;5025;48.890;9.278;2022-11-02T08:38:55;2.80;;;2.50;;
9968;SDS011;5025;48.890;9.278;2022-11-02T08:41:20;4.10;;;2.67;;
9968;SDS011;5025;48.890;9.278;2022-11-02T08:43:45;3.40;;;2.57;;
9968;SDS011;5025;48.890;9.278;2022-11-02T08:46:11;3.93;;;2.27;;
9968;SDS011;5025;48.890;9.278;2022-11-02T08:48:36;3.73;;;2.50;;
9968;SDS011;5025;48.890;9.278;2022-11-02T08:51:01;3.80;;;2.57;;
9968;SDS011;5025;48.890;9.278;2022-11-02T08:53:27;3.00;;;2.60;;
9968;SDS011;5025;48.890;9.278;2022-11-02T08:55:55;4.17;;;2.93;;
9968;SDS011;5025;48.890;9.278;2022-11-02T08:58:22;4.70;;;2.90;;
9968;SDS011;5025;48.890;9.278;2022-11-02T09:00:47;5.67;;;3.30;;
9968;SDS011;5025;48.890;9.278;2022-11-02T09:03:14;7.57;;;3.87;;
9968;SDS011;5025;48.890;9.278;2022-11-02T09:05:41;9.00;;;4.57;;
9968;SDS011;5025;48.890;9.278;2022-11-02T09:08:14;6.63;;;3.97;;
9968;SDS011;5025;48.890;9.278;2022-11-02T09:10:43;6.73;;;3.73;;
9968;SDS011;5025;48.890;9.278;2022-11-02T09:13:10;6.03;;;3.70;;
9968;SDS011;5025;48.890;9.278;2022-11-02T09:15:37;5.70;;;3.60;;
9968;SDS011;5025;48.890;9.278;2022-11-02T09:18:04;5.90;;;3.67;;
9968;SDS011;5025;48.890;9.278;2022-11-02T09:20:30;5.33;;;2.60;;
9968;SDS011;5025;48.890;9.278;2022-11-02T09:22:55;4.13;;;2.77;;
9968;SDS011;5025;48.890;9.278;2022-11-02T09:25:21;4.87;;;2.93;;
9968;SDS011;5025;48.890;9.278;2022-11-02T09:27:50;8.33;;;4.20;;
9968;SDS011;5025;48.890;9.278;2022-11-02T09:30:17;7.70;;;4.07;;
9968;SDS011;5025;48.890;9.278;2022-11-02T09:32:43;8.17;;;4.17;;
9968;SDS011;5025;48.890;9.278;2022-11-02T09:35:09;7.30;;;3.30;;
9968;SDS011;5025;48.890;9.278;2022-11-02T09:37:35;4.40;;;3.17;;
9968;SDS011;5025;48.890;9.278;2022-11-02T09:40:02;6.57;;;3.00;;
9968;SDS011;5025;48.890;9.278;2022-11-02T09:45:18;5.27;;;2.60;;
9968;SDS011;5025;48.890;9.278;2022-11-02T09:47:49;8.10;;;3.40;;
9968;SDS011;5025;48.890;9.278;2022-11-02T09:50:21;5.97;;;3.10;;
9968;SDS011;5025;48.890;9.278;2022-11-02T09:52:49;5.80;;;3.13;;
9968;SDS011;5025;48.890;9.278;2022-11-02T09:55:21;3.87;;;2.50;;
9968;SDS011;5025;48.890;9.278;2022-11-02T09:57:53;6.40;;;2.40;;
9968;SDS011;5025;48.890;9.278;2022-11-02T10:00:28;4.60;;;1.90;;
9968;SDS011;5025;48.890;9.278;2022-11-02T10:03:00;4.77;;;1.80;;
9968;SDS011;5025;48.890;9.278;2022-11-02T10:16:31;4.97;;;2.00;;
9968;SDS011;5025;48.890;9.278;2022-11-02T10:19:01;7.40;;;2.20;;
9968;SDS011;5025;48.890;9.278;2022-11-02T10:21:32;8.47;;;2.20;;
9968;SDS011;5025;48.890;9.278;2022-11-02T10:24:14;10.27;;;2.60;;
9968;SDS011;5025;48.890;9.278;2022-11-02T10:26:59;7.30;;;2.20;;
9968;SDS011;5025;48.890;9.278;2022-11-02T10:29:46;6.60;;;1.87;;
9968;SDS011;5025;48.890;9.278;2022-11-02T10:32:18;12.23;;;2.27;;
9968;SDS011;5025;48.890;9.278;2022-11-02T10:34:44;5.07;;;2.20;;
9968;SDS011;5025;48.890;9.278;2022-11-02T10:37:18;5.67;;;2.23;;
9968;SDS011;5025;48.890;9.278;2022-11-02T10:43:21;7.57;;;2.40;;
9968;SDS011;5025;48.890;9.278;2022-11-02T10:49:08;9.57;;;2.53;;
9968;SDS011;5025;48.890;9.278;2022-11-02T10:51:40;6.97;;;2.20;;
9968;SDS011;5025;48.890;9.278;2022-11-02T10:54:10;4.97;;;1.93;;
9968;SDS011;5025;48.890;9.278;2022-11-02T10:56:38;9.07;;;2.80;;
9968;SDS011;5025;48.890;9.278;2022-11-02T10:59:09;5.37;;;2.13;;
9968;SDS011;5025;48.890;9.278;2022-11-02T11:01:43;7.53;;;2.00;;
9968;SDS011;5025;48.890;9.278;2022-11-02T11:04:24;7.13;;;2.47;;
9968;SDS011;5025;48.890;9.278;2022-11-02T11:06:51;9.23;;;2.30;;
9968;SDS011;5025;48.890;9.278;2022-11-02T11:09:19;8.67;;;2.53;;
9968;SDS011;5025;48.890;9.278;2022-11-02T11:12:03;7.93;;;2.43;;
9968;SDS011;5025;48.890;9.278;2022-11-02T11:14:43;7.83;;;2.73;;
9968;SDS011;5025;48.890;9.278;2022-11-02T11:17:44;6.23;;;2.20;;
9968;SDS011;5025;48.890;9.278;2022-11-02T11:20:22;7.57;;;2.17;;
9968;SDS011;5025;48.890;9.278;2022-11-02T11:23:08;8.10;;;2.40;;
9968;SDS011;5025;48.890;9.278;2022-11-02T11:25:33;7.00;;;2.43;;
9968;SDS011;5025;48.890;9.278;2022-11-02T11:27:59;6.30;;;2.30;;
9968;SDS011;5025;48.890;9.278;2022-11-02T11:33:02;5.83;;;1.80;;
9968;SDS011;5025;48.890;9.278;2022-11-02T11:37:59;6.93;;;2.30;;
9968;SDS011;5025;48.890;9.278;2022-11-02T11:40:27;7.47;;;2.73;;
9968;SDS011;5025;48.890;9.278;2022-11-02T11:42:58;6.30;;;1.90;;
9968;SDS011;5025;48.890;9.278;2022-11-02T11:45:26;6.83;;;2.17;;
9968;SDS011;5025;48.890;9.278;2022-11-02T11:47:54;4.93;;;1.80;;
9968;SDS011;5025;48.890;9.278;2022-11-02T11:50:47;6.10;;;2.03;;
9968;SDS011;5025;48.890;9.278;2022-11-02T11:53:18;5.47;;;2.00;;
9968;SDS011;5025;48.890;9.278;2022-11-02T11:55:53;5.97;;;2.23;;
9968;SDS011;5025;48.890;9.278;2022-11-02T11:58:23;8.37;;;2.23;;
9968;SDS011;5025;48.890;9.278;2022-11-02T12:01:00;8.33;;;2.50;;
9968;SDS011;5025;48.890;9.278;2022-11-02T12:03:28;7.27;;;1.90;;
9968;SDS011;5025;48.890;9.278;2022-11-02T12:11:25;5.13;;;2.00;;
9968;SDS011;5025;48.890;9.278;2022-11-02T12:14:01;4.00;;;2.10;;
9968;SDS011;5025;48.890;9.278;2022-11-02T12:25:02;7.50;;;2.13;;
9968;SDS011;5025;48.890;9.278;2022-11-02T12:33:05;5.87;;;2.10;;
9968;SDS011;5025;48.890;9.278;2022-11-02T12:43:55;3.83;;;1.90;;
9968;SDS011;5025;48.890;9.278;2022-11-02T12:46:30;4.40;;;1.90;;
9968;SDS011;5025;48.890;9.278;2022-11-02T12:49:19;4.40;;;1.73;;
9968;SDS011;5025;48.890;9.278;2022-11-02T12:54:23;4.63;;;1.87;;
9968;SDS011;5025;48.890;9.278;2022-11-02T12:56:53;5.83;;;1.97;;
9968;SDS011;5025;48.890;9.278;2022-11-02T12:59:31;5.40;;;2.27;;
9968;SDS011;5025;48.890;9.278;2022-11-02T13:02:15;5.17;;;1.97;;
9968;SDS011;5025;48.890;9.278;2022-11-02T13:04:49;4.20;;;1.87;;
9968;SDS011;5025;48.890;9.278;2022-11-02T13:07:29;5.57;;;2.10;;
9968;SDS011;5025;48.890;9.278;2022-11-02T13:10:37;4.83;;;2.30;;
9968;SDS011;5025;48.890;9.278;2022-11-02T13:12:58;6.03;;;2.17;;
9968;SDS011;5025;48.890;9.278;2022-11-02T13:15:27;5.23;;;2.07;;
9968;SDS011;5025;48.890;9.278;2022-11-02T13:17:57;3.03;;;1.90;;
9968;SDS011;5025;48.890;9.278;2022-11-02T13:20:26;4.50;;;2.13;;
9968;SDS011;5025;48.890;9.278;2022-11-02T13:22:56;3.63;;;1.90;;
9968;SDS011;5025;48.890;9.278;2022-11-02T13:25:30;6.80;;;2.03;;
9968;SDS011;5025;48.890;9.278;2022-11-02T13:28:01;4.93;;;1.87;;
9968;SDS011;5025;48.890;9.278;2022-11-02T13:30:33;5.77;;;2.03;;
9968;SDS011;5025;48.890;9.278;2022-11-02T13:33:15;4.77;;;1.83;;
9968;SDS011;5025;48.890;9.278;2022-11-02T13:35:45;6.17;;;2.27;;
9968;SDS011;5025;48.890;9.278;2022-11-02T13:40:46;5.70;;;2.10;;
9968;SDS011;5025;48.890;9.278;2022-11-02T13:43:31;3.97;;;1.90;;
9968;SDS011;5025;48.890;9.278;2022-11-02T13:48:56;3.80;;;2.00;;
9968;SDS011;5025;48.890;9.278;2022-11-02T13:51:33;3.87;;;2.10;;
9968;SDS011;5025;48.890;9.278;2022-11-02T13:54:05;5.87;;;2.10;;
9968;SDS011;5025;48.890;9.278;2022-11-02T13:56:38;3.80;;;1.80;;
9968;SDS011;5025;48.890;9.278;2022-11-02T13:59:09;2.47;;;1.63;;
9968;SDS011;5025;48.890;9.278;2022-11-02T14:01:45;1.77;;;1.50;;
9968;SDS011;5025;48.890;9.278;2022-11-02T14:04:12;2.37;;;1.43;;
9968;SDS011;5025;48.890;9.278;2022-11-02T14:25:54;2.70;;;1.70;;
9968;SDS011;5025;48.890;9.278;2022-11-02T14:35:56;2.00;;;1.50;;
9968;SDS011;5025;48.890;9.278;2022-11-02T14:38:32;2.50;;;1.70;;
9968;SDS011;5025;48.890;9.278;2022-11-02T14:44:04;3.53;;;2.07;;
9968;SDS011;5025;48.890;9.278;2022-11-02T14:47:02;3.83;;;1.70;;
9968;SDS011;5025;48.890;9.278;2022-11-02T14:49:31;1.83;;;1.57;;
9968;SDS011;5025;48.890;9.278;2022-11-02T14:52:22;1.63;;;1.40;;
9968;SDS011;5025;48.890;9.278;2022-11-02T14:54:52;3.83;;;1.93;;
9968;SDS011;5025;48.890;9.278;2022-11-02T14:59:55;3.23;;;1.70;;
9968;SDS011;5025;48.890;9.278;2022-11-02T15:05:00;2.07;;;1.67;;
9968;SDS011;5025;48.890;9.278;2022-11-02T15:07:41;2.90;;;1.70;;
9968;SDS011;5025;48.890;9.278;2022-11-02T15:12:39;4.27;;;1.70;;
9968;SDS011;5025;48.890;9.278;2022-11-02T15:22:38;2.70;;;1.60;;
9968;SDS011;5025;48.890;9.278;2022-11-02T15:27:38;3.70;;;1.80;;
9968;SDS011;5025;48.890;9.278;2022-11-02T15:30:06;4.37;;;1.70;;
9968;SDS011;5025;48.890;9.278;2022-11-02T15:32:37;3.20;;;2.17;;
9968;SDS011;5025;48.890;9.278;2022-11-02T15:35:12;2.93;;;1.93;;
9968;SDS011;5025;48.890;9.278;2022-11-02T15:37:42;5.30;;;2.00;;
9968;SDS011;5025;48.890;9.278;2022-11-02T15:40:10;5.40;;;2.10;;
9968;SDS011;5025;48.890;9.278;2022-11-02T15:42:46;6.50;;;2.30;;
9968;SDS011;5025;48.890;9.278;2022-11-02T15:56:38;3.27;;;1.50;;
9968;SDS011;5025;48.890;9.278;2022-11-02T16:04:29;2.83;;;1.23;;
9968;SDS011;5025;48.890;9.278;2022-11-02T16:06:55;2.73;;;1.60;;
9968;SDS011;5025;48.890;9.278;2022-11-02T16:09:34;3.90;;;1.93;;
9968;SDS011;5025;48.890;9.278;2022-11-02T16:12:21;3.83;;;1.73;;
9968;SDS011;5025;48.890;9.278;2022-11-02T16:17:41;4.37;;;1.70;;
9968;SDS011;5025;48.890;9.278;2022-11-02T16:20:17;5.97;;;1.93;;
9968;SDS011;5025;48.890;9.278;2022-11-02T16:22:52;3.33;;;1.53;;
9968;SDS011;5025;48.890;9.278;2022-11-02T16:25:20;3.77;;;1.60;;
9968;SDS011;5025;48.890;9.278;2022-11-02T16:27:55;3.93;;;1.83;;
9968;SDS011;5025;48.890;9.278;2022-11-02T16:30:34;3.27;;;1.80;;
9968;SDS011;5025;48.890;9.278;2022-11-02T16:33:01;6.30;;;2.23;;
9968;SDS011;5025;48.890;9.278;2022-11-02T16:35:27;4.30;;;2.20;;
9968;SDS011;5025;48.890;9.278;2022-11-02T16:37:53;4.43;;;2.40;;
9968;SDS011;5025;48.890;9.278;2022-11-02T16:40:18;3.30;;;2.20;;
9968;SDS011;5025;48.890;9.278;2022-11-02T16:42:46;2.73;;;2.20;;
9968;SDS011;5025;48.890;9.278;2022-11-02T16:45:33;3.97;;;2.27;;
9968;SDS011;5025;48.890;9.278;2022-11-02T16:48:00;3.93;;;2.60;;
9968;SDS011;5025;48.890;9.278;2022-11-02T16:50:28;3.87;;;2.63;;
9968;SDS011;5025;48.890;9.278;2022-11-02T16:52:58;4.47;;;3.30;;
9968;SDS011;5025;48.890;9.278;2022-11-02T16:55:42;6.10;;;4.17;;
9968;SDS011;5025;48.890;9.278;2022-11-02T16:58:17;6.53;;;4.00;;
9968;SDS011;5025;48.890;9.278;2022-11-02T17:00:50;6.53;;;3.93;;
9968;SDS011;5025;48.890;9.278;2022-11-02T17:03:18;7.33;;;4.47;;
9968;SDS011;5025;48.890;9.278;2022-11-02T17:05:47;8.40;;;4.20;;
9968;SDS011;5025;48.890;9.278;2022-11-02T17:11:01;7.37;;;4.00;;
9968;SDS011;5025;48.890;9.278;2022-11-02T17:13:29;6.33;;;3.77;;
9968;SDS011;5025;48.890;9.278;2022-11-02T17:16:03;6.03;;;4.00;;
9968;SDS011;5025;48.890;9.278;2022-11-02T17:18:32;5.20;;;3.67;;
9968;SDS011;5025;48.890;9.278;2022-11-02T17:21:31;9.00;;;4.50;;
9968;SDS011;5025;48.890;9.278;2022-11-02T17:23:51;5.43;;;4.07;;
9968;SDS011;5025;48.890;9.278;2022-11-02T17:26:23;5.80;;;3.80;;
9968;SDS011;5025;48.890;9.278;2022-11-02T17:28:55;5.17;;;3.90;;
9968;SDS011;5025;48.890;9.278;2022-11-02T17:31:27;5.03;;;3.67;;
9968;SDS011;5025;48.890;9.278;2022-11-02T17:34:16;5.63;;;3.80;;
9968;SDS011;5025;48.890;9.278;2022-11-02T17:36:46;6.23;;;4.10;;
9968;SDS011;5025;48.890;9.278;2022-11-02T17:39:16;5.87;;;3.97;;
9968;SDS011;5025;48.890;9.278;2022-11-02T17:41:44;6.10;;;4.07;;
9968;SDS011;5025;48.890;9.278;2022-11-02T17:44:34;5.67;;;4.20;;
9968;SDS011;5025;48.890;9.278;2022-11-02T17:47:00;7.13;;;4.90;;
9968;SDS011;5025;48.890;9.278;2022-11-02T17:49:25;8.40;;;4.67;;
9968;SDS011;5025;48.890;9.278;2022-11-02T17:51:50;8.40;;;4.90;;
9968;SDS011;5025;48.890;9.278;2022-11-02T17:54:16;7.63;;;4.33;;
9968;SDS011;5025;48.890;9.278;2022-11-02T17:56:42;6.43;;;3.80;;
9968;SDS011;5025;48.890;9.278;2022-11-02T17:59:07;6.43;;;3.70;;
9968;SDS011;5025;48.890;9.278;2022-11-02T18:01:33;5.53;;;3.20;;
9968;SDS011;5025;48.890;9.278;2022-11-02T18:03:58;6.27;;;4.00;;
9968;SDS011;5025;48.890;9.278;2022-11-02T18:06:24;6.50;;;3.80;;
9968;SDS011;5025;48.890;9.278;2022-11-02T18:08:49;5.47;;;3.57;;
9968;SDS011;5025;48.890;9.278;2022-11-02T18:11:33;4.47;;;3.50;;
9968;SDS011;5025;48.890;9.278;2022-11-02T18:13:59;5.00;;;3.50;;